Time;durP1;ratioP1;P1;durP2;ratioP2;P2;SDS_P1;SDS_P2;PMS_P1;PMS_P2;Temp;Humidity;BMP_temperature;BMP_pressure;BME280_temperature;BME280_humidity;BME280_pressure;Samples;Min_cycle;Max_cycle;Signal;HPM_P1;HPM_P2
2021/12/21 00:01:32;;;;;;;44.90;16.50;;;;;;;-1.51;82.80;100638.55;126639;1311;108787;-82
2021/12/21 00:04:37;;;;;;;36.60;13.80;;;;;;;-1.48;82.23;100639.48;127542;1312;108885;-79
2021/12/21 00:07:43;;;;;;;41.00;13.80;;;;;;;-1.48;82.30;100636.52;127802;1315;109048;-79
2021/12/21 00:10:49;;;;;;;27.00;10.70;;;;;;;-1.51;82.15;100634.89;127256;1311;107862;-75
2021/12/21 00:14:12;;;;;;;21.20;8.30;;;;;;;-1.52;82.32;100632.67;126673;1318;106992;-76
2021/12/21 00:17:31;;;;;;;20.90;8.50;;;;;;;-1.57;82.22;100632.89;126696;1312;108842;-76
2021/12/21 00:20:49;;;;;;;39.20;11.70;;;;;;;-1.56;81.90;100631.48;126641;1312;107755;-76
2021/12/21 00:23:59;;;;;;;26.30;9.10;;;;;;;-1.56;82.11;100629.04;126784;1316;106797;-79
2021/12/21 00:27:08;;;;;;;23.60;9.00;;;;;;;-1.55;81.92;100628.98;126578;1315;108777;-78
2021/12/21 00:30:14;;;;;;;16.20;7.50;;;;;;;-1.59;81.93;100633.64;126606;1312;109445;-77
2021/12/21 00:33:19;;;;;;;24.80;9.60;;;;;;;-1.58;81.79;100642.71;126866;1312;107935;-76
2021/12/21 00:36:28;;;;;;;27.70;13.90;;;;;;;-1.55;81.96;100644.14;126801;1312;107904;-76
2021/12/21 00:39:34;;;;;;;24.90;10.50;;;;;;;-1.54;81.84;100647.60;126500;1312;108992;-77
2021/12/21 00:42:40;;;;;;;28.20;14.40;;;;;;;-1.55;81.78;100650.98;126504;1312;108463;-76
2021/12/21 00:45:45;;;;;;;19.10;8.40;;;;;;;-1.58;81.87;100652.85;126599;1317;108848;-76
2021/12/21 00:48:54;;;;;;;18.60;10.10;;;;;;;-1.63;81.90;100654.41;126503;1311;108888;-71
2021/12/21 00:51:59;;;;;;;22.10;9.70;;;;;;;-1.70;81.70;100662.23;126512;1311;108604;-75
2021/12/21 00:55:07;;;;;;;17.40;7.60;;;;;;;-1.80;82.69;100661.58;126366;1317;108864;-75
2021/12/21 00:58:13;;;;;;;20.80;9.30;;;;;;;-1.82;83.67;100661.34;126573;1312;108897;-76
2021/12/21 01:01:18;;;;;;;16.70;7.20;;;;;;;-1.82;83.16;100663.95;126607;1317;108691;-76
2021/12/21 01:04:29;;;;;;;15.40;7.30;;;;;;;-1.82;82.90;100666.58;126685;1311;108770;-76
2021/12/21 01:07:39;;;;;;;15.30;6.40;;;;;;;-1.82;82.67;100664.67;126866;1315;108736;-76
2021/12/21 01:11:00;;;;;;;12.90;5.70;;;;;;;-1.87;82.36;100663.80;126594;1312;108638;-75
2021/12/21 01:14:28;;;;;;;16.50;6.60;;;;;;;-1.89;82.16;100665.11;126476;1312;107735;-76
2021/12/21 01:17:47;;;;;;;11.30;5.20;;;;;;;-1.89;82.00;100669.84;126789;1318;108748;-76
2021/12/21 01:21:04;;;;;;;13.10;6.70;;;;;;;-1.87;81.91;100672.02;126894;1312;108754;-76
2021/12/21 01:24:32;;;;;;;12.30;6.20;;;;;;;-1.86;82.22;100672.49;126570;1315;108892;-74
2021/12/21 01:27:51;;;;;;;11.70;4.90;;;;;;;-1.87;82.03;100678.13;126558;1311;108898;-76
2021/12/21 01:31:03;;;;;;;12.60;6.20;;;;;;;-1.91;81.75;100679.48;126567;1316;108954;-77
2021/12/21 01:34:22;;;;;;;9.50;5.10;;;;;;;-1.89;81.97;100685.69;126602;1311;108868;-76
2021/12/21 01:37:39;;;;;;;13.80;6.10;;;;;;;-1.86;81.78;100684.70;126585;1315;108668;-76
2021/12/21 01:40:51;;;;;;;10.10;5.00;;;;;;;-1.84;81.63;100679.20;126673;1312;108627;-75
2021/12/21 01:44:06;;;;;;;;;;;;;;;-1.83;81.44;100678.48;126744;1317;108440;-74
2021/12/21 01:50:35;;;;;;;19.20;9.40;;;;;;;-1.87;81.53;100676.91;126606;1312;107864;-75
2021/12/21 01:53:42;;;;;;;14.50;7.40;;;;;;;-1.88;81.34;100685.48;126713;1311;108921;-76
2021/12/21 01:56:47;;;;;;;9.70;4.80;;;;;;;-1.90;81.38;100691.84;126709;1316;107400;-76
2021/12/21 01:59:53;;;;;;;10.90;4.70;;;;;;;-1.89;81.40;100695.45;126518;1317;108840;-78
2021/12/21 02:02:58;;;;;;;13.50;5.60;;;;;;;-1.85;81.39;100694.59;126631;1312;107612;-78
2021/12/21 02:06:05;;;;;;;16.80;7.40;;;;;;;-1.79;81.29;100695.20;126557;1312;107494;-79
2021/12/21 02:09:10;;;;;;;12.00;6.10;;;;;;;-1.79;81.34;100692.59;126699;1311;108858;-77
2021/12/21 02:12:19;;;;;;;11.00;5.40;;;;;;;-1.81;81.11;100690.41;126738;1312;108729;-78
2021/12/21 02:15:25;;;;;;;11.30;5.70;;;;;;;-1.88;81.06;100693.48;126762;1312;108974;-78
2021/12/21 02:18:38;;;;;;;13.10;5.80;;;;;;;-1.91;81.33;100692.43;126579;1314;191271;-76
2021/12/21 02:21:48;;;;;;;12.50;6.20;;;;;;;-1.91;81.34;100696.05;126694;1317;108732;-76
2021/12/21 02:25:02;;;;;;;12.30;5.80;;;;;;;-1.91;81.44;100695.88;126638;1315;108723;-77
2021/12/21 02:28:23;;;;;;;12.50;5.90;;;;;;;-1.87;81.15;100700.75;126718;1318;108981;-78
2021/12/21 02:31:29;;;;;;;10.50;5.30;;;;;;;-1.83;81.27;100698.85;127381;1314;108917;-78
2021/12/21 02:34:35;;;;;;;12.10;5.20;;;;;;;-1.79;81.25;100699.05;126606;1316;108936;-78
2021/12/21 02:37:40;;;;;;;13.60;5.90;;;;;;;-1.80;81.24;100698.55;126647;1317;108777;-78
2021/12/21 02:40:46;;;;;;;11.80;5.10;;;;;;;-1.81;80.98;100702.98;126555;1311;108969;-75
2021/12/21 02:43:51;;;;;;;34.70;15.20;;;;;;;-1.85;80.87;100701.21;126705;1317;109041;-76
2021/12/21 02:46:57;;;;;;;55.70;24.10;;;;;;;-1.87;80.82;100698.15;126767;1311;108564;-77
2021/12/21 02:50:02;;;;;;;13.90;6.50;;;;;;;-1.85;80.77;100702.44;126621;1315;108841;-79
2021/12/21 02:53:11;;;;;;;14.80;7.60;;;;;;;-1.90;80.60;100701.09;126489;1315;108764;-77
2021/12/21 02:56:17;;;;;;;11.70;6.80;;;;;;;-1.96;81.10;100702.73;126299;1317;108971;-78
2021/12/21 02:59:23;;;;;;;11.60;6.70;;;;;;;-2.06;80.82;100707.45;126616;1318;108726;-78
2021/12/21 03:02:30;;;;;;;11.30;5.30;;;;;;;-2.12;81.09;100708.94;126547;1316;107943;-74
2021/12/21 03:05:37;;;;;;;11.20;5.50;;;;;;;-2.13;81.09;100715.95;126661;1316;108561;-70
2021/12/21 03:08:48;;;;;;;9.30;4.80;;;;;;;-2.14;80.95;100720.86;126579;1315;108716;-71
2021/12/21 03:11:57;;;;;;;8.40;3.90;;;;;;;-2.19;81.09;100725.42;126537;1314;107638;-72
2021/12/21 03:15:03;;;;;;;10.10;5.10;;;;;;;-2.26;81.06;100726.20;126735;1317;108417;-75
2021/12/21 03:18:08;;;;;;;8.70;4.10;;;;;;;-2.28;81.02;100729.42;126674;1318;108581;-74
2021/12/21 03:21:15;;;;;;;9.20;4.70;;;;;;;-2.30;81.12;100732.48;126590;1317;108773;-74
2021/12/21 03:24:20;;;;;;;9.70;4.20;;;;;;;-2.28;81.18;100730.47;126704;1312;108714;-73
2021/12/21 03:27:25;;;;;;;11.80;4.40;;;;;;;-2.23;81.13;100731.67;126621;1318;109048;-73
2021/12/21 03:30:31;;;;;;;8.80;4.00;;;;;;;-2.24;80.68;100737.10;126609;1317;109013;-73
2021/12/21 03:33:37;;;;;;;8.60;4.10;;;;;;;-2.30;80.88;100738.58;126292;1310;108782;-72
2021/12/21 03:36:42;;;;;;;46.10;15.80;;;;;;;-2.37;80.82;100738.66;126622;1318;108881;-73
2021/12/21 03:39:50;;;;;;;10.60;4.50;;;;;;;-2.47;80.88;100739.19;126383;1314;108768;-73
2021/12/21 03:42:55;;;;;;;11.30;5.40;;;;;;;-2.53;80.86;100736.82;126617;1318;107676;-71
2021/12/21 03:46:07;;;;;;;11.70;5.20;;;;;;;-2.50;81.02;100742.10;126488;1317;108831;-74
2021/12/21 03:49:48;;;;;;;12.80;5.80;;;;;;;-2.46;80.87;100744.08;126362;1317;108742;-73
2021/12/21 03:52:42;;;;;;;13.00;5.90;;;;;;;-2.45;80.62;100747.13;126594;1316;108708;-73
2021/12/21 03:55:57;;;;;;;14.10;8.10;;;;;;;-2.47;80.38;100749.84;126636;1317;107749;-73
2021/12/21 03:59:03;;;;;;;8.90;4.00;;;;;;;-2.52;80.57;100750.73;126671;1317;108593;-72
2021/12/21 04:02:11;;;;;;;13.70;6.80;;;;;;;-2.53;80.57;100750.95;126552;1317;107525;-72
2021/12/21 04:05:17;;;;;;;10.20;4.20;;;;;;;-2.53;80.51;100755.30;126433;1318;108830;-73
2021/12/21 04:08:23;;;;;;;10.60;5.10;;;;;;;-2.54;80.34;100760.38;126465;1317;107776;-76
2021/12/21 04:11:28;;;;;;;9.60;4.50;;;;;;;-2.54;80.27;100761.09;126326;1315;108564;-75
2021/12/21 04:14:35;;;;;;;12.20;6.10;;;;;;;-2.54;80.38;100759.84;126274;1315;107746;-75
2021/12/21 04:17:41;;;;;;;9.70;4.60;;;;;;;-2.55;80.30;100763.20;126311;1316;107240;-75
2021/12/21 04:20:46;;;;;;;12.70;5.20;;;;;;;-2.59;80.31;100765.11;126428;1310;108879;-74
2021/12/21 04:23:52;;;;;;;11.50;5.10;;;;;;;-2.63;80.34;100768.02;126538;1318;108866;-75
2021/12/21 04:26:57;;;;;;;9.40;4.60;;;;;;;-2.64;80.26;100769.45;126328;1316;108930;-74
2021/12/21 04:30:04;;;;;;;11.00;5.00;;;;;;;-2.63;80.46;100768.90;126377;1312;107466;-75
2021/12/21 04:33:09;;;;;;;12.30;5.30;;;;;;;-2.57;80.39;100778.43;126331;1318;109049;-74
2021/12/21 04:36:15;;;;;;;9.10;5.00;;;;;;;-2.56;80.33;100784.99;126457;1317;106906;-75
2021/12/21 04:39:29;;;;;;;9.80;5.00;;;;;;;-2.58;80.23;100780.89;126483;1318;108808;-78
2021/12/21 04:42:35;;;;;;;8.80;5.00;;;;;;;-2.59;80.32;100785.30;126538;1318;108626;-82
2021/12/21 04:45:40;;;;;;;9.20;4.90;;;;;;;-2.62;80.39;100791.48;126541;1318;109186;-79
2021/12/21 04:48:46;;;;;;;8.00;4.40;;;;;;;-2.63;80.37;100792.77;126483;1318;108448;-76
2021/12/21 04:51:52;;;;;;;9.00;4.70;;;;;;;-2.62;80.41;100792.89;126440;1317;108827;-75
2021/12/21 04:54:57;;;;;;;8.90;4.70;;;;;;;-2.54;80.44;100795.39;126387;1312;108906;-74
2021/12/21 04:58:03;;;;;;;10.40;4.80;;;;;;;-2.48;80.43;100798.98;126420;1316;109187;-75
2021/12/21 05:01:09;;;;;;;8.90;4.40;;;;;;;-2.44;80.42;100805.81;126323;1315;108747;-73
2021/12/21 05:04:14;;;;;;;9.00;4.80;;;;;;;-2.43;80.38;100805.08;126317;1312;108984;-73
2021/12/21 05:07:23;;;;;;;8.40;4.50;;;;;;;-2.48;80.43;100811.54;126353;1310;108758;-74
2021/12/21 05:10:29;;;;;;;9.60;5.10;;;;;;;-2.57;80.33;100817.09;126345;1312;108793;-76
2021/12/21 05:13:37;;;;;;;8.30;4.80;;;;;;;-2.55;80.64;100813.89;126365;1311;108678;-74
2021/12/21 05:16:42;;;;;;;8.10;4.70;;;;;;;-2.48;80.38;100812.06;126436;1310;108926;-74
2021/12/21 05:19:48;;;;;;;9.60;4.70;;;;;;;-2.43;80.48;100813.80;126437;1316;108772;-74
2021/12/21 05:22:53;;;;;;;10.00;5.30;;;;;;;-2.41;80.20;100829.56;126381;1317;106520;-74
2021/12/21 05:25:59;;;;;;;11.10;5.30;;;;;;;-2.37;80.13;100834.11;126426;1318;108929;-75
2021/12/21 05:29:04;;;;;;;14.00;5.60;;;;;;;-2.34;79.82;100830.18;126342;1310;108788;-74
2021/12/21 05:32:10;;;;;;;12.60;6.30;;;;;;;-2.30;79.99;100828.48;126365;1311;108936;-74
2021/12/21 05:35:15;;;;;;;11.50;5.80;;;;;;;-2.30;79.31;100837.20;126425;1312;108833;-75
2021/12/21 05:38:29;;;;;;;10.90;5.30;;;;;;;-2.35;79.19;100837.72;126390;1314;107916;-74
2021/12/21 05:41:47;;;;;;;14.50;7.20;;;;;;;-2.40;78.63;100840.15;126324;1317;108905;-74
2021/12/21 05:44:53;;;;;;;14.10;7.00;;;;;;;-2.42;78.71;100837.80;126359;1312;107776;-74
2021/12/21 05:47:59;;;;;;;12.20;5.40;;;;;;;-2.41;77.87;100837.93;126329;1311;109263;-73
2021/12/21 05:51:04;;;;;;;9.90;4.70;;;;;;;-2.37;78.45;100836.20;126340;1318;108848;-73
2021/12/21 05:54:10;;;;;;;8.80;4.60;;;;;;;-2.29;77.99;100838.02;126339;1311;108934;-73
2021/12/21 05:57:15;;;;;;;9.60;4.70;;;;;;;-2.26;77.59;100836.86;126414;1310;108825;-72
2021/12/21 06:00:24;;;;;;;12.30;5.50;;;;;;;-2.29;77.44;100843.10;126283;1315;108860;-74
2021/12/21 06:03:30;;;;;;;17.70;6.80;;;;;;;-2.40;76.39;100854.27;126402;1311;108851;-72
2021/12/21 06:06:35;;;;;;;14.30;6.40;;;;;;;-2.52;76.59;100859.42;126430;1315;107717;-73
2021/12/21 06:09:43;;;;;;;14.40;6.50;;;;;;;-2.59;77.39;100859.33;126420;1311;107812;-73
2021/12/21 06:13:19;;;;;;;12.60;5.90;;;;;;;-2.63;77.93;100857.86;126456;1310;108858;-76
2021/12/21 06:22:44;;;;;;;13.70;5.80;;;;;;;-2.63;77.50;100857.70;126452;1315;107605;-74
2021/12/21 06:26:40;;;;;;;10.30;5.20;;;;;;;-2.59;77.79;100872.20;126397;1310;108826;-78
2021/12/21 06:29:46;;;;;;;8.20;4.40;;;;;;;-2.54;77.87;100875.35;126483;1315;108845;-77
2021/12/21 06:32:52;;;;;;;8.60;4.20;;;;;;;-2.45;77.57;100882.35;126392;1310;108920;-75
2021/12/21 06:35:58;;;;;;;11.90;3.70;;;;;;;-2.42;76.74;100884.32;126426;1311;108156;-77
2021/12/21 06:39:06;;;;;;;7.60;3.70;;;;;;;-2.37;77.43;100886.06;126605;1312;107796;-74
2021/12/21 06:42:14;;;;;;;7.20;4.00;;;;;;;-2.32;77.31;100883.09;126431;1314;108587;-76
2021/12/21 06:45:30;;;;;;;9.20;4.30;;;;;;;-2.36;76.90;100883.57;126457;1311;108790;-76
2021/12/21 06:52:01;;;;;;;11.30;5.20;;;;;;;-2.60;77.05;100882.33;126385;1315;108744;-77
2021/12/21 06:55:08;;;;;;;13.10;5.80;;;;;;;-2.69;77.42;100878.83;126324;1316;107990;-77
2021/12/21 06:58:13;;;;;;;17.60;8.00;;;;;;;-2.75;77.20;100884.42;126371;1311;108789;-77
2021/12/21 07:01:19;;;;;;;15.00;6.30;;;;;;;-2.87;76.93;100889.69;126326;1310;107261;-76
2021/12/21 07:04:25;;;;;;;21.30;9.90;;;;;;;-2.95;77.43;100895.38;126511;1312;108949;-78
2021/12/21 07:07:31;;;;;;;20.70;9.20;;;;;;;-3.02;77.49;100893.52;127277;1312;108952;-77
2021/12/21 07:10:39;;;;;;;23.00;10.80;;;;;;;-2.97;77.62;100905.71;126486;1310;108771;-78
2021/12/21 07:20:33;;;;;;;52.70;24.50;;;;;;;-2.88;77.23;100924.74;126925;1312;108804;-76
2021/12/21 07:23:39;;;;;;;16.50;7.90;;;;;;;-2.80;77.45;100930.74;126706;1310;108946;-77
2021/12/21 07:26:45;;;;;;;11.40;5.40;;;;;;;-2.73;75.74;100936.25;126403;1314;109188;-78
2021/12/21 07:29:50;;;;;;;15.40;8.20;;;;;;;-2.67;76.21;100938.83;126492;1314;108929;-77
2021/12/21 07:32:56;;;;;;;15.10;7.90;;;;;;;-2.55;75.84;100939.29;126369;1312;108838;-78
2021/12/21 07:36:01;;;;;;;17.30;10.00;;;;;;;-2.46;75.86;100942.11;126420;1315;108709;-78
2021/12/21 07:39:08;;;;;;;11.00;7.00;;;;;;;-2.32;75.86;100940.06;126426;1312;108989;-76
2021/12/21 07:42:14;;;;;;;17.50;10.10;;;;;;;-2.26;74.69;100945.09;126344;1310;107617;-77
2021/12/21 07:45:26;;;;;;;21.10;10.30;;;;;;;-2.28;74.93;100948.83;126336;1309;108939;-80
2021/12/21 07:48:32;;;;;;;54.60;26.20;;;;;;;-2.31;74.38;100949.46;126513;1311;108737;-78
2021/12/21 07:51:38;;;;;;;32.50;15.90;;;;;;;-2.32;75.03;100954.17;126467;1310;108729;-77
2021/12/21 07:54:44;;;;;;;19.80;7.90;;;;;;;-2.31;74.35;100956.77;126430;1312;108654;-77
2021/12/21 07:57:49;;;;;;;16.30;9.10;;;;;;;-2.38;73.11;100965.21;126494;1311;107870;-77
2021/12/21 08:00:55;;;;;;;19.60;9.50;;;;;;;-2.48;73.88;100971.98;126420;1315;108928;-77
2021/12/21 08:04:01;;;;;;;26.50;13.50;;;;;;;-2.52;74.29;100972.45;126413;1315;107787;-77
2021/12/21 08:07:12;;;;;;;27.30;15.40;;;;;;;-2.56;74.13;100977.14;126411;1314;108729;-77
2021/12/21 08:10:26;;;;;;;17.80;9.40;;;;;;;-2.61;73.95;100984.45;126311;1315;109128;-77
2021/12/21 08:13:32;;;;;;;16.30;7.60;;;;;;;-2.65;73.89;100982.48;126311;1312;108922;-77
2021/12/21 08:16:37;;;;;;;23.20;12.90;;;;;;;-2.75;72.99;100989.24;126438;1312;108654;-77
2021/12/21 08:19:43;;;;;;;18.30;8.10;;;;;;;-2.86;73.41;100985.24;126308;1311;108767;-77
2021/12/21 08:22:48;;;;;;;10.50;5.80;;;;;;;-2.87;74.02;100982.14;126327;1310;108745;-77
2021/12/21 08:25:56;;;;;;;14.70;8.80;;;;;;;-2.86;73.69;100980.21;126287;1311;108858;-76
2021/12/21 08:29:01;;;;;;;11.40;6.60;;;;;;;-2.86;73.93;100979.16;126342;1312;108737;-75
2021/12/21 08:32:08;;;;;;;10.20;5.50;;;;;;;-2.84;73.52;100972.65;126423;1312;106901;-77
2021/12/21 08:35:14;;;;;;;9.60;5.10;;;;;;;-2.83;73.57;100970.71;126459;1312;108692;-78
2021/12/21 08:38:20;;;;;;;15.50;7.40;;;;;;;-2.81;73.54;100977.59;126448;1310;107852;-76
2021/12/21 08:41:27;;;;;;;22.90;12.00;;;;;;;-2.80;73.65;100986.80;126400;1312;108799;-76
2021/12/21 08:44:32;;;;;;;21.80;10.30;;;;;;;-2.80;73.69;100987.65;126467;1311;109555;-77
2021/12/21 08:47:38;;;;;;;26.90;10.90;;;;;;;-2.79;73.33;100985.21;126357;1311;108687;-77
2021/12/21 08:50:45;;;;;;;14.80;6.70;;;;;;;-2.82;72.80;100982.86;126368;1315;108936;-78
2021/12/21 08:53:51;;;;;;;13.10;6.10;;;;;;;-2.80;73.10;100986.46;126430;1311;108818;-77
2021/12/21 08:56:56;;;;;;;10.10;5.10;;;;;;;-2.79;73.11;100993.05;126310;1311;108479;-77
2021/12/21 09:00:02;;;;;;;9.10;4.70;;;;;;;-2.80;72.84;100992.20;126493;1311;108763;-77
2021/12/21 09:03:08;;;;;;;9.90;5.20;;;;;;;-2.78;72.65;100990.57;126390;1311;108815;-78
2021/12/21 09:06:13;;;;;;;12.80;6.00;;;;;;;-2.76;73.03;100992.95;126412;1312;108828;-79
2021/12/21 09:09:19;;;;;;;14.00;5.90;;;;;;;-2.71;72.79;100994.89;126427;1312;108751;-79
2021/12/21 09:12:24;;;;;;;14.70;6.20;;;;;;;-2.66;72.77;100999.25;126487;1311;107795;-78
2021/12/21 09:15:31;;;;;;;12.80;5.80;;;;;;;-2.64;72.66;101000.92;126445;1315;109008;-78
2021/12/21 09:18:36;;;;;;;11.10;5.70;;;;;;;-2.63;72.64;101004.52;126415;1312;108861;-78
2021/12/21 09:21:41;;;;;;;11.90;5.90;;;;;;;-2.59;72.73;101005.98;127195;1312;108987;-77
2021/12/21 09:24:47;;;;;;;11.90;6.10;;;;;;;-2.54;72.63;101007.88;126637;1311;108933;-78
2021/12/21 09:27:56;;;;;;;15.10;7.60;;;;;;;-2.51;72.28;101009.37;126786;1309;109231;-77
2021/12/21 09:31:01;;;;;;;18.30;9.30;;;;;;;-2.51;72.40;101013.54;126424;1313;107372;-77
2021/12/21 09:34:07;;;;;;;15.30;7.80;;;;;;;-2.48;72.37;101016.92;126482;1311;107423;-77
2021/12/21 09:37:17;;;;;;;19.10;8.40;;;;;;;-2.46;72.28;101021.05;126527;1310;108951;-77
2021/12/21 09:40:25;;;;;;;20.40;9.50;;;;;;;-2.45;72.48;101026.05;126512;1312;107444;-77
2021/12/21 09:43:30;;;;;;;22.10;12.50;;;;;;;-2.38;72.28;101017.83;126512;1314;108790;-78
2021/12/21 09:46:36;;;;;;;19.30;8.70;;;;;;;-2.33;72.46;101016.27;126357;1313;108940;-75
2021/12/21 09:49:43;;;;;;;15.70;7.30;;;;;;;-2.29;72.38;101012.65;126457;1311;108772;-77
2021/12/21 09:52:49;;;;;;;17.10;7.50;;;;;;;-2.26;72.15;101007.46;126568;1314;108817;-78
2021/12/21 09:55:54;;;;;;;12.10;6.40;;;;;;;-2.22;72.00;101006.31;126393;1311;109378;-77
2021/12/21 09:59:00;;;;;;;13.60;6.60;;;;;;;-2.17;72.24;101002.98;126439;1310;108911;-77
2021/12/21 10:02:05;;;;;;;12.50;6.70;;;;;;;-2.12;72.08;100998.81;126343;1312;109053;-75
2021/12/21 10:05:15;;;;;;;12.20;6.50;;;;;;;-2.10;72.21;100996.81;126618;1310;109037;-79
2021/12/21 10:08:21;;;;;;;13.20;6.70;;;;;;;-2.04;72.28;101000.23;126408;1315;108803;-78
2021/12/21 10:11:26;;;;;;;17.70;8.10;;;;;;;-1.98;72.10;100994.30;126349;1311;108963;-77
2021/12/21 10:14:32;;;;;;;14.70;8.00;;;;;;;-1.92;71.93;100995.67;126513;1312;108537;-78
2021/12/21 10:17:38;;;;;;;16.40;8.50;;;;;;;-1.91;71.79;100988.83;126260;1312;316098;-78
2021/12/21 10:20:45;;;;;;;14.20;7.40;;;;;;;-1.87;71.96;100984.48;126945;1312;107910;-79
2021/12/21 10:23:54;;;;;;;14.20;6.70;;;;;;;-1.83;72.18;100981.56;126540;1310;108913;-76
2021/12/21 10:27:10;;;;;;;10.10;5.90;;;;;;;-1.77;71.90;100978.56;126522;1309;109003;-75
2021/12/21 10:30:15;;;;;;;12.50;6.90;;;;;;;-1.73;71.87;100978.91;126578;1312;107869;-74
2021/12/21 10:33:21;;;;;;;15.20;7.00;;;;;;;-1.70;71.97;100973.92;126501;1312;108849;-74
2021/12/21 10:36:29;;;;;;;11.70;6.30;;;;;;;-1.67;71.64;100973.30;126613;1315;108726;-76
2021/12/21 10:39:36;;;;;;;11.90;6.50;;;;;;;-1.64;71.74;100969.17;126347;1312;107915;-78
2021/12/21 10:42:52;;;;;;;12.10;6.20;;;;;;;-1.61;71.62;100964.68;126609;1310;108889;-76
2021/12/21 10:45:58;;;;;;;13.50;6.20;;;;;;;-1.57;71.98;100960.02;126389;1311;108860;-76
2021/12/21 10:49:12;;;;;;;14.90;8.00;;;;;;;-1.48;71.70;100956.17;126564;1310;108748;-76
2021/12/21 10:52:21;;;;;;;16.70;8.30;;;;;;;-1.43;71.49;100954.77;126505;1311;108353;-73
2021/12/21 10:55:29;;;;;;;15.80;7.70;;;;;;;-1.39;71.61;100947.83;126579;1312;108817;-73
2021/12/21 10:58:39;;;;;;;15.50;7.80;;;;;;;-1.30;71.42;100951.30;126261;1311;107834;-73
2021/12/21 11:01:46;;;;;;;14.50;7.20;;;;;;;-1.13;71.50;100948.52;126506;1312;107793;-74
2021/12/21 11:04:55;;;;;;;17.70;7.70;;;;;;;-0.95;71.13;100950.42;126819;1312;106694;-73
2021/12/21 11:08:06;;;;;;;16.70;7.40;;;;;;;-0.81;71.12;100952.98;126631;1311;108931;-74
2021/12/21 11:11:27;;;;;;;14.30;7.90;;;;;;;-0.71;70.87;100942.80;126620;1311;108816;-73
2021/12/21 11:14:32;;;;;;;15.60;8.50;;;;;;;-0.63;71.35;100933.73;126415;1310;108869;-77
2021/12/21 11:17:38;;;;;;;17.00;9.00;;;;;;;-0.62;70.54;100932.63;126406;1311;107864;-77
2021/12/21 11:20:48;;;;;;;13.90;7.70;;;;;;;-0.63;70.55;100938.98;126575;1312;108742;-76
2021/12/21 11:23:54;;;;;;;13.50;7.50;;;;;;;-0.64;69.25;100934.66;126463;1312;108845;-76
2021/12/21 11:27:02;;;;;;;14.50;8.00;;;;;;;-0.69;69.37;100932.41;126543;1311;108788;-77
2021/12/21 11:30:11;;;;;;;13.70;7.90;;;;;;;-0.68;68.76;100938.11;126398;1311;108999;-76
2021/12/21 11:33:19;;;;;;;12.50;8.00;;;;;;;-0.76;68.62;100939.00;126594;1311;108784;-77
2021/12/21 11:39:48;;;;;;;19.20;9.50;;;;;;;-0.85;67.31;100945.66;126442;1311;108867;-77
2021/12/21 11:43:11;;;;;;;16.60;9.70;;;;;;;-0.91;69.23;100941.71;126365;1313;108847;-77
2021/12/21 11:46:25;;;;;;;29.10;14.30;;;;;;;-0.86;68.83;100942.20;126454;1311;108510;-77
2021/12/21 11:49:43;;;;;;;18.10;9.40;;;;;;;-0.78;70.09;100939.23;126590;1312;108910;-75
2021/12/21 11:52:51;;;;;;;17.80;9.80;;;;;;;-0.64;70.05;100944.97;126306;1310;109095;-77
2021/12/21 11:55:58;;;;;;;23.70;13.50;;;;;;;-0.67;68.33;100942.27;126465;1310;109017;-79
2021/12/21 11:59:04;;;;;;;28.70;16.40;;;;;;;-0.81;68.40;100935.16;126521;1310;108931;-73
2021/12/21 12:02:10;;;;;;;18.50;10.80;;;;;;;-0.81;69.97;100932.88;126559;1310;109257;-74
2021/12/21 12:05:25;;;;;;;18.60;11.00;;;;;;;-0.75;69.82;100933.36;126581;1312;108820;-75
2021/12/21 12:08:43;;;;;;;70.20;33.70;;;;;;;-0.76;69.61;100935.52;126519;1312;108732;-76
2021/12/21 12:11:49;;;;;;;21.80;12.10;;;;;;;-0.87;67.96;100943.81;126759;1311;108929;-75
2021/12/21 12:15:04;;;;;;;22.80;13.40;;;;;;;-0.99;69.00;100945.31;126589;1312;108715;-76
2021/12/21 12:18:20;;;;;;;20.70;10.50;;;;;;;-1.03;69.64;100943.05;126649;1311;109808;-78
2021/12/21 12:21:28;;;;;;;15.80;9.20;;;;;;;-0.98;69.96;100940.77;126666;1313;108913;-77
2021/12/21 12:24:38;;;;;;;30.30;11.40;;;;;;;-0.93;70.06;100934.27;126592;1310;107447;-74
2021/12/21 12:27:48;;;;;;;19.50;10.10;;;;;;;-0.86;69.32;100931.20;126562;1311;107993;-78
2021/12/21 12:30:54;;;;;;;16.10;9.60;;;;;;;-0.84;69.67;100929.73;126355;1315;108815;-76
2021/12/21 12:33:59;;;;;;;18.30;9.20;;;;;;;-0.85;69.74;100930.79;126724;1312;109456;-76
2021/12/21 12:37:16;;;;;;;18.90;9.20;;;;;;;-0.79;70.01;100925.83;126777;1316;107548;-75
2021/12/21 12:40:25;;;;;;;22.70;11.40;;;;;;;-0.71;69.97;100924.48;126995;1309;108794;-78
2021/12/21 12:43:33;;;;;;;15.50;9.00;;;;;;;-0.68;69.87;100923.98;126655;1310;108874;-77
2021/12/21 12:46:39;;;;;;;56.80;17.90;;;;;;;-0.69;69.61;100923.84;126532;1311;108929;-76
2021/12/21 12:49:52;;;;;;;42.70;13.70;;;;;;;-0.63;69.70;100926.76;126756;1311;106989;-77
2021/12/21 12:53:01;;;;;;;20.20;9.50;;;;;;;-0.57;69.53;100929.30;126615;1315;108973;-77
2021/12/21 12:56:07;;;;;;;49.00;21.10;;;;;;;-0.55;69.12;100934.25;126621;1314;107790;-77
2021/12/21 12:59:13;;;;;;;58.80;28.40;;;;;;;-0.58;69.01;100934.58;126604;1315;107915;-79
2021/12/21 13:02:19;;;;;;;24.10;11.70;;;;;;;-0.62;69.40;100931.75;126377;1311;109159;-78
2021/12/21 13:05:34;;;;;;;17.90;9.40;;;;;;;-0.60;69.19;100936.55;126674;1308;107308;-76
2021/12/21 13:08:42;;;;;;;13.40;8.00;;;;;;;-0.59;68.90;100939.13;126791;1311;108760;-78
2021/12/21 13:11:48;;;;;;;16.70;9.10;;;;;;;-0.61;69.07;100935.55;126580;1311;108754;-83
2021/12/21 13:14:56;;;;;;;19.60;10.00;;;;;;;-0.62;69.14;100933.86;126507;1310;108890;-71
2021/12/21 13:18:04;;;;;;;22.00;10.10;;;;;;;-0.59;69.26;100936.19;126656;1312;107557;-73
2021/12/21 13:21:22;;;;;;;19.00;9.20;;;;;;;-0.60;68.93;100933.06;126515;1315;109633;-73
2021/12/21 13:24:33;;;;;;;25.80;13.50;;;;;;;-0.62;69.21;100933.86;126346;1312;108966;-73
2021/12/21 13:27:38;;;;;;;17.30;9.20;;;;;;;-0.65;68.85;100937.83;126576;1310;109010;-71
2021/12/21 13:30:49;;;;;;;14.50;8.70;;;;;;;-0.78;68.56;100939.77;126272;1311;108958;-71
2021/12/21 13:33:57;;;;;;;16.70;10.10;;;;;;;-0.83;69.31;100940.33;126573;1311;108864;-76
2021/12/21 13:37:06;;;;;;;83.00;28.20;;;;;;;-0.85;69.16;100943.02;126653;1312;107898;-75
2021/12/21 13:40:16;;;;;;;51.40;18.10;;;;;;;-0.91;69.27;100940.50;126716;1310;107884;-77
2021/12/21 13:43:21;;;;;;;36.90;18.10;;;;;;;-1.00;69.10;100940.83;126689;1312;108764;-77
2021/12/21 13:46:32;;;;;;;23.80;12.80;;;;;;;-1.05;69.43;100942.95;126481;1311;107815;-76
2021/12/21 13:49:38;;;;;;;24.70;13.60;;;;;;;-1.10;69.50;100941.08;126512;1315;108784;-76
2021/12/21 13:52:45;;;;;;;51.80;23.80;;;;;;;-1.17;69.34;100940.65;126629;1312;107756;-77
2021/12/21 13:55:53;;;;;;;75.90;35.30;;;;;;;-1.24;69.38;100941.99;126686;1311;107741;-77
2021/12/21 13:59:00;;;;;;;45.50;21.80;;;;;;;-1.31;69.44;100939.83;126691;1311;106759;-77
2021/12/21 14:02:07;;;;;;;121.50;59.00;;;;;;;-1.43;69.68;100938.35;126809;1310;108941;-76
2021/12/21 14:05:17;;;;;;;86.80;37.00;;;;;;;-1.50;69.89;100936.73;126673;1312;107940;-76
2021/12/21 14:08:23;;;;;;;86.00;35.10;;;;;;;-1.57;69.95;100935.58;126568;1311;108818;-76
2021/12/21 14:11:31;;;;;;;53.80;25.70;;;;;;;-1.64;69.73;100931.67;126572;1310;108757;-76
2021/12/21 14:14:38;;;;;;;106.60;33.70;;;;;;;-1.66;70.15;100930.67;126605;1311;108615;-76
2021/12/21 14:17:43;;;;;;;32.00;14.80;;;;;;;-1.66;69.59;100933.64;126780;1311;108859;-75
2021/12/21 14:21:01;;;;;;;31.20;14.80;;;;;;;-1.66;70.14;100934.15;126508;1310;108785;-76
2021/12/21 14:24:09;;;;;;;29.90;15.00;;;;;;;-1.69;69.95;100930.45;126324;1312;107899;-76
2021/12/21 14:27:15;;;;;;;27.60;13.30;;;;;;;-1.76;69.97;100932.98;126331;1310;108597;-76
2021/12/21 14:30:20;;;;;;;31.50;15.50;;;;;;;-1.84;69.84;100931.20;126526;1311;108909;-76